createdAt,value
2018-12-15T00:01:28.179Z,39.93
2018-12-15T00:04:02.867Z,39.33
2018-12-15T00:06:37.791Z,41.33
2018-12-15T00:09:12.586Z,42.57
2018-12-15T00:11:47.366Z,33.33
2018-12-15T00:14:22.258Z,41.87
2018-12-15T00:16:57.180Z,41.83
2018-12-15T00:19:31.931Z,42.93
2018-12-15T00:22:06.647Z,37.63
2018-12-15T00:24:41.508Z,41.23
2018-12-15T00:27:16.399Z,28.50
2018-12-15T00:29:51.147Z,39.83
2018-12-15T00:32:26.071Z,35.40
2018-12-15T00:35:00.808Z,36.97
2018-12-15T00:37:35.707Z,38.80
2018-12-15T00:40:10.521Z,38.87
2018-12-15T00:42:45.358Z,41.03
2018-12-15T00:45:20.077Z,35.53
2018-12-15T00:47:54.945Z,41.43
2018-12-15T00:50:29.586Z,39.10
2018-12-15T00:53:04.431Z,36.13
2018-12-15T00:55:39.322Z,32.57
2018-12-15T00:58:14.438Z,33.63
2018-12-15T01:00:49.490Z,36.87
2018-12-15T01:03:24.379Z,41.60
2018-12-15T01:05:59.234Z,39.93
2018-12-15T01:08:34.096Z,40.27
2018-12-15T01:11:08.965Z,46.47
2018-12-15T01:13:43.961Z,42.83
2018-12-15T01:16:18.544Z,43.47
2018-12-15T01:18:53.339Z,37.67
2018-12-15T01:21:28.096Z,39.93
2018-12-15T01:24:02.929Z,35.77
2018-12-15T01:26:37.761Z,30.80
2018-12-15T01:29:12.481Z,40.50
2018-12-15T01:31:47.346Z,39.47
2018-12-15T01:34:22.255Z,46.73
2018-12-15T01:36:57.148Z,36.23
2018-12-15T01:39:31.973Z,40.53
2018-12-15T01:42:06.994Z,43.33
2018-12-15T01:44:41.628Z,35.63
2018-12-15T01:47:16.520Z,35.20
2018-12-15T01:49:51.460Z,39.30
2018-12-15T01:52:26.352Z,46.57
2018-12-15T01:55:01.244Z,41.83
2018-12-15T01:57:36.056Z,35.33
2018-12-15T02:00:13.070Z,35.50
2018-12-15T02:02:47.755Z,37.93
2018-12-15T02:05:22.601Z,41.37
2018-12-15T02:07:57.563Z,43.40
2018-12-15T02:10:32.178Z,37.70
2018-12-15T02:13:07.095Z,39.00
2018-12-15T02:15:42.034Z,38.30
2018-12-15T02:18:16.748Z,45.97
2018-12-15T02:20:51.685Z,43.43
2018-12-15T02:23:26.326Z,38.00
2018-12-15T02:26:01.092Z,42.83
2018-12-15T02:28:35.768Z,42.10
2018-12-15T02:31:10.785Z,40.80
2018-12-15T02:33:45.551Z,42.13
2018-12-15T02:36:20.552Z,37.93
2018-12-15T02:38:55.376Z,43.20
2018-12-15T02:41:30.276Z,37.77
2018-12-15T02:44:05.142Z,39.00
2018-12-15T02:46:39.838Z,36.73
2018-12-15T02:49:14.552Z,41.43
2018-12-15T02:51:49.395Z,39.63
2018-12-15T02:54:24.233Z,40.70
2018-12-15T02:56:59.284Z,39.93
2018-12-15T02:59:34.243Z,43.47
2018-12-15T03:02:08.982Z,38.00
2018-12-15T03:04:43.807Z,44.13
2018-12-15T03:07:18.577Z,37.73
2018-12-15T03:09:53.471Z,38.07
2018-12-15T03:12:28.365Z,39.73
2018-12-15T03:15:03.582Z,39.50
2018-12-15T03:17:38.439Z,41.23
2018-12-15T03:20:13.065Z,43.30
2018-12-15T03:22:47.810Z,42.27
2018-12-15T03:25:22.471Z,40.60
2018-12-15T03:27:57.394Z,42.00
2018-12-15T03:30:32.084Z,44.90
2018-12-15T03:33:07.155Z,37.93
2018-12-15T03:35:42.202Z,39.13
2018-12-15T03:38:16.895Z,39.67
2018-12-15T03:40:51.699Z,43.63
2018-12-15T03:43:26.647Z,39.13
2018-12-15T03:46:01.397Z,38.47
2018-12-15T03:48:35.968Z,40.47
2018-12-15T03:51:10.879Z,40.27
2018-12-15T03:53:45.773Z,39.87
2018-12-15T03:56:20.645Z,39.60
2018-12-15T03:58:55.408Z,44.27
2018-12-15T04:01:30.307Z,36.90
2018-12-15T04:04:05.335Z,36.17
2018-12-15T04:06:40.107Z,43.60
2018-12-15T04:09:14.974Z,39.57
2018-12-15T04:11:49.863Z,41.90
2018-12-15T04:14:24.661Z,37.97
2018-12-15T04:16:59.511Z,40.03
2018-12-15T04:19:34.336Z,41.27
2018-12-15T04:22:19.672Z,42.23
2018-12-15T04:24:54.595Z,41.10
2018-12-15T04:27:29.473Z,39.47
2018-12-15T04:30:05.598Z,42.07
2018-12-15T04:32:45.083Z,41.20
2018-12-15T04:35:16.977Z,40.13
2018-12-15T04:37:51.843Z,43.20
2018-12-15T04:40:26.751Z,40.60
2018-12-15T04:43:01.582Z,42.93
2018-12-15T04:45:36.410Z,42.23
2018-12-15T04:48:11.578Z,46.57
2018-12-15T04:50:46.883Z,42.73
2018-12-15T04:53:21.738Z,46.90
2018-12-15T04:55:56.549Z,46.77
2018-12-15T04:58:31.408Z,42.33
2018-12-15T05:01:06.457Z,47.13
2018-12-15T05:03:41.072Z,45.57
2018-12-15T05:06:15.985Z,47.07
2018-12-15T05:08:50.823Z,41.60
2018-12-15T05:11:25.483Z,50.77
2018-12-15T05:14:00.288Z,44.20
2018-12-15T05:16:35.113Z,43.83
2018-12-15T05:19:10.198Z,44.87
2018-12-15T05:21:44.986Z,49.97
2018-12-15T05:24:19.919Z,38.07
2018-12-15T05:26:54.857Z,49.60
2018-12-15T05:29:29.606Z,48.23
2018-12-15T05:32:04.558Z,49.27
2018-12-15T05:34:39.306Z,47.83
2018-12-15T05:37:14.131Z,39.13
2018-12-15T05:39:49.033Z,42.70
2018-12-15T05:42:23.905Z,52.03
2018-12-15T05:44:58.942Z,41.10
2018-12-15T05:47:33.764Z,46.43
2018-12-15T05:50:08.475Z,49.37
2018-12-15T05:52:43.301Z,38.00
2018-12-15T05:55:18.122Z,45.47
2018-12-15T05:57:53.017Z,47.17
2018-12-15T06:00:27.817Z,40.33
2018-12-15T06:03:02.752Z,42.77
2018-12-15T06:05:37.657Z,42.33
2018-12-15T06:08:12.690Z,42.73
2018-12-15T06:10:47.510Z,42.23
2018-12-15T06:13:22.255Z,47.83
2018-12-15T06:15:57.499Z,47.83
2018-12-15T06:18:32.400Z,41.30
2018-12-15T06:21:07.378Z,44.90
2018-12-15T06:23:42.235Z,51.23
2018-12-15T06:26:17.069Z,40.10
2018-12-15T06:28:51.978Z,53.67
2018-12-15T06:31:26.883Z,42.40
2018-12-15T06:34:01.902Z,40.07
2018-12-15T06:36:36.498Z,46.17
2018-12-15T06:39:11.385Z,45.00
2018-12-15T06:41:46.116Z,49.60
2018-12-15T06:44:20.950Z,42.67
2018-12-15T06:46:55.904Z,48.70
2018-12-15T06:49:31.198Z,49.37
2018-12-15T06:52:06.028Z,40.67
2018-12-15T06:54:41.098Z,47.67
2018-12-15T06:57:16.071Z,48.57
2018-12-15T06:59:50.915Z,49.27
2018-12-15T07:02:25.722Z,41.87
2018-12-15T07:05:00.449Z,47.53
2018-12-15T07:07:35.309Z,48.90
2018-12-15T07:10:10.240Z,33.90
2018-12-15T07:12:45.040Z,44.17
2018-12-15T07:15:20.002Z,50.20
2018-12-15T07:17:55.011Z,47.57
2018-12-15T07:20:29.931Z,48.50
2018-12-15T07:23:04.764Z,37.43
2018-12-15T07:25:40.648Z,48.27
2018-12-15T07:28:15.401Z,45.30
2018-12-15T07:30:50.517Z,42.77
2018-12-15T07:33:25.333Z,47.13
2018-12-15T07:36:00.180Z,42.53
2018-12-15T07:38:35.007Z,44.93
2018-12-15T07:41:09.676Z,48.20
2018-12-15T07:43:44.466Z,37.40
2018-12-15T07:46:19.380Z,49.97
2018-12-15T07:48:54.141Z,46.63
2018-12-15T07:51:29.152Z,51.17
2018-12-15T07:54:03.986Z,34.17
2018-12-15T07:56:38.866Z,45.20
2018-12-15T07:59:13.765Z,48.97
2018-12-15T08:01:48.529Z,45.10
2018-12-15T08:04:23.481Z,41.10
2018-12-15T08:06:58.207Z,53.90
2018-12-15T08:09:35.131Z,41.20
2018-12-15T08:12:15.140Z,48.47
2018-12-15T08:14:50.259Z,52.87
2018-12-15T08:17:31.631Z,46.67
2018-12-15T08:20:09.575Z,43.23
2018-12-15T08:22:44.242Z,51.07
2018-12-15T08:25:19.138Z,40.03
2018-12-15T08:27:53.721Z,50.37
2018-12-15T08:30:28.597Z,45.93
2018-12-15T08:33:03.559Z,44.03
2018-12-15T08:35:38.159Z,44.30
2018-12-15T08:38:13.137Z,43.20
2018-12-15T08:40:47.854Z,44.47
2018-12-15T08:43:22.882Z,50.67
2018-12-15T08:45:57.599Z,44.03
2018-12-15T08:48:32.466Z,39.83
2018-12-15T08:51:07.690Z,37.43
2018-12-15T08:53:42.766Z,42.73
2018-12-15T08:56:17.531Z,41.70
2018-12-15T08:58:52.395Z,43.30
2018-12-15T09:01:27.192Z,44.73
2018-12-15T09:04:01.910Z,36.80
2018-12-15T09:06:36.854Z,44.67
2018-12-15T09:09:11.617Z,40.73
2018-12-15T09:11:46.546Z,41.90
2018-12-15T09:14:21.530Z,40.77
2018-12-15T09:16:56.276Z,43.57
2018-12-15T09:19:31.300Z,46.80
2018-12-15T09:22:11.534Z,38.57
2018-12-15T09:24:43.086Z,43.43
2018-12-15T09:27:17.824Z,41.57
2018-12-15T09:29:53.657Z,40.97
2018-12-15T09:32:28.548Z,43.97
2018-12-15T09:35:03.829Z,48.70
2018-12-15T09:37:38.615Z,40.10
2018-12-15T09:40:13.497Z,45.80
2018-12-15T09:42:48.200Z,40.13
2018-12-15T09:45:23.205Z,42.23
2018-12-15T09:47:57.853Z,41.63
2018-12-15T09:50:32.712Z,44.90
2018-12-15T09:53:07.590Z,38.50
2018-12-15T09:55:42.399Z,40.80
2018-12-15T09:58:17.206Z,43.77
2018-12-15T10:00:52.220Z,42.77
2018-12-15T10:03:27.085Z,37.03
2018-12-15T10:06:01.924Z,43.80
2018-12-15T10:08:36.728Z,43.30
2018-12-15T10:11:11.403Z,42.13
2018-12-15T10:13:46.232Z,40.40
2018-12-15T10:16:21.112Z,43.30
2018-12-15T10:18:56.022Z,41.20
2018-12-15T10:21:30.670Z,44.43
2018-12-15T10:24:05.563Z,31.60
2018-12-15T10:26:40.314Z,37.30
2018-12-15T10:29:20.541Z,39.97
2018-12-15T10:32:00.867Z,44.67
2018-12-15T10:34:35.498Z,42.27
2018-12-15T10:37:10.369Z,42.50
2018-12-15T10:39:45.225Z,40.00
2018-12-15T10:42:20.165Z,40.50
2018-12-15T10:44:54.855Z,40.10
2018-12-15T10:47:29.850Z,43.40
2018-12-15T10:50:05.670Z,36.37
2018-12-15T10:52:40.437Z,38.47
2018-12-15T10:55:15.157Z,38.33
2018-12-15T10:57:50.055Z,36.50
2018-12-15T11:00:29.220Z,40.00
2018-12-15T11:03:04.182Z,37.77
2018-12-15T11:05:38.951Z,37.50
2018-12-15T11:08:13.786Z,39.47
2018-12-15T11:10:48.603Z,40.00
2018-12-15T11:13:23.405Z,40.53
2018-12-15T11:15:58.216Z,34.97
2018-12-15T11:18:33.065Z,41.10
2018-12-15T11:21:07.899Z,37.43
2018-12-15T11:23:42.825Z,32.53
2018-12-15T11:26:17.646Z,38.40
2018-12-15T11:28:52.367Z,37.70
2018-12-15T11:31:27.142Z,40.13
2018-12-15T11:34:02.160Z,33.93
2018-12-15T11:36:36.825Z,35.93
2018-12-15T11:39:12.527Z,34.33
2018-12-15T11:41:47.390Z,39.77
2018-12-15T11:44:22.203Z,39.53
2018-12-15T11:46:56.940Z,35.83
2018-12-15T11:49:31.953Z,36.97
2018-12-15T11:52:07.008Z,35.93
2018-12-15T11:54:41.881Z,37.40
2018-12-15T11:57:16.888Z,34.63
2018-12-15T11:59:51.827Z,33.33
2018-12-15T12:02:31.881Z,35.70
2018-12-15T12:05:03.661Z,41.33
2018-12-15T12:07:38.519Z,32.77
2018-12-15T12:10:13.365Z,31.20
2018-12-15T12:12:48.283Z,33.40
2018-12-15T12:15:23.072Z,35.77
2018-12-15T12:17:57.738Z,35.73
2018-12-15T12:20:34.111Z,34.17
2018-12-15T12:23:08.900Z,35.80
2018-12-15T12:25:43.674Z,35.60
2018-12-15T12:28:18.601Z,35.37
2018-12-15T12:30:53.467Z,39.20
2018-12-15T12:33:28.258Z,36.77
2018-12-15T12:36:03.120Z,32.83
2018-12-15T12:38:37.844Z,35.97
2018-12-15T12:41:12.782Z,34.13
2018-12-15T12:43:47.620Z,34.00
2018-12-15T12:46:22.597Z,31.83
2018-12-15T12:48:57.524Z,35.00
2018-12-15T12:51:32.714Z,36.37
2018-12-15T12:54:07.484Z,37.10
2018-12-15T12:56:42.502Z,36.40
2018-12-15T12:59:17.050Z,34.57
2018-12-15T13:01:52.061Z,33.33
2018-12-15T13:04:26.773Z,34.10
2018-12-15T13:07:01.578Z,34.47
2018-12-15T13:09:36.403Z,37.87
2018-12-15T13:12:11.334Z,38.23
2018-12-15T13:14:46.093Z,37.37
2018-12-15T13:17:21.031Z,40.33
2018-12-15T13:19:55.879Z,38.37
2018-12-15T13:22:30.805Z,33.80
2018-12-15T13:25:05.744Z,31.47
2018-12-15T13:27:40.398Z,41.67
2018-12-15T13:30:15.434Z,31.57
2018-12-15T13:32:50.136Z,37.33
2018-12-15T13:35:24.903Z,41.07
2018-12-15T13:37:59.726Z,37.53
2018-12-15T13:40:34.807Z,36.80
2018-12-15T13:43:09.596Z,34.97
2018-12-15T13:45:44.318Z,33.50
2018-12-15T13:48:19.020Z,34.10
2018-12-15T13:50:54.085Z,35.80
2018-12-15T13:53:28.885Z,36.70
2018-12-15T13:56:03.706Z,37.87
2018-12-15T13:58:38.435Z,34.10
2018-12-15T14:01:13.238Z,37.10
2018-12-15T14:03:48.135Z,36.70
2018-12-15T14:06:22.986Z,35.77
2018-12-15T14:08:57.887Z,36.87
2018-12-15T14:11:32.751Z,34.87
2018-12-15T14:14:07.588Z,37.97
2018-12-15T14:16:42.314Z,35.73
2018-12-15T14:19:17.088Z,37.53
2018-12-15T14:21:51.852Z,38.03
2018-12-15T14:24:26.734Z,32.63
2018-12-15T14:27:01.625Z,36.00
2018-12-15T14:29:36.656Z,36.60
2018-12-15T14:32:11.425Z,32.67
2018-12-15T14:34:46.268Z,36.07
2018-12-15T14:37:21.184Z,36.67
2018-12-15T14:39:55.887Z,37.20
2018-12-15T14:42:30.661Z,34.90
2018-12-15T14:45:06.285Z,39.90
2018-12-15T14:47:40.947Z,36.30
2018-12-15T14:50:15.801Z,41.73
2018-12-15T14:52:50.656Z,38.90
2018-12-15T14:55:25.445Z,34.57
2018-12-15T14:58:00.340Z,37.20
2018-12-15T15:00:35.298Z,39.70
2018-12-15T15:03:10.158Z,39.03
2018-12-15T15:05:44.978Z,34.37
2018-12-15T15:08:19.835Z,38.43
2018-12-15T15:10:54.964Z,36.73
2018-12-15T15:13:34.504Z,38.00
2018-12-15T15:16:06.577Z,32.97
2018-12-15T15:18:47.944Z,37.80
2018-12-15T15:21:22.760Z,30.03
2018-12-15T15:23:57.465Z,31.67
2018-12-15T15:26:32.449Z,37.67
2018-12-15T15:29:07.033Z,36.27
2018-12-15T15:31:41.874Z,38.23
2018-12-15T15:34:16.704Z,39.03
2018-12-15T15:36:51.454Z,41.10
2018-12-15T15:39:26.283Z,40.70
2018-12-15T15:42:01.247Z,35.47
2018-12-15T15:44:36.475Z,32.50
2018-12-15T15:47:11.158Z,39.87
2018-12-15T15:49:45.899Z,33.97
2018-12-15T15:52:20.622Z,35.20
2018-12-15T15:54:55.432Z,27.53
2018-12-15T15:57:30.424Z,38.50
2018-12-15T16:00:06.774Z,36.40
2018-12-15T16:02:41.721Z,28.93
2018-12-15T16:05:16.450Z,42.57
2018-12-15T16:07:51.550Z,36.87
2018-12-15T16:10:26.527Z,37.27
2018-12-15T16:13:01.316Z,38.73
2018-12-15T16:15:36.325Z,38.27
2018-12-15T16:18:11.479Z,39.73
2018-12-15T16:20:46.435Z,38.73
2018-12-15T16:23:21.261Z,33.87
2018-12-15T16:25:56.273Z,40.00
2018-12-15T16:28:31.181Z,41.30
2018-12-15T16:31:06.113Z,46.77
2018-12-15T16:33:40.976Z,40.33
2018-12-15T16:36:15.817Z,36.50
2018-12-15T16:38:50.632Z,39.17
2018-12-15T16:41:25.565Z,37.37
2018-12-15T16:44:00.399Z,39.40
2018-12-15T16:46:35.162Z,41.63
2018-12-15T16:49:10.022Z,44.53
2018-12-15T16:51:44.861Z,34.53
2018-12-15T16:54:19.748Z,38.30
2018-12-15T16:56:54.490Z,37.07
2018-12-15T16:59:29.388Z,38.47
2018-12-15T17:02:04.328Z,34.47
2018-12-15T17:04:39.303Z,30.30
2018-12-15T17:07:14.071Z,39.13
2018-12-15T17:09:49.091Z,41.00
2018-12-15T17:12:23.751Z,39.63
2018-12-15T17:14:58.738Z,35.90
2018-12-15T17:17:33.382Z,40.93
2018-12-15T17:20:09.508Z,39.77
2018-12-15T17:22:44.179Z,42.00
2018-12-15T17:25:18.986Z,39.53
2018-12-15T17:27:53.909Z,38.53
2018-12-15T17:30:28.893Z,35.87
2018-12-15T17:33:06.663Z,44.17
2018-12-15T17:35:41.559Z,39.40
2018-12-15T17:38:16.289Z,36.33
2018-12-15T17:40:51.087Z,44.27
2018-12-15T17:43:25.890Z,40.77
2018-12-15T17:46:00.881Z,36.40
2018-12-15T17:51:06.624Z,42.43
2018-12-15T17:53:41.409Z,42.83
2018-12-15T17:56:16.100Z,43.33
2018-12-15T17:58:50.682Z,44.10
2018-12-15T18:01:25.542Z,43.63
2018-12-15T18:04:00.321Z,43.00
2018-12-15T18:06:35.108Z,47.23
2018-12-15T18:09:10.153Z,41.03
2018-12-15T18:11:45.267Z,40.77
2018-12-15T18:14:19.901Z,38.90
2018-12-15T18:16:54.864Z,43.00
2018-12-15T18:19:29.964Z,44.57
2018-12-15T18:22:04.875Z,48.40
2018-12-15T18:24:39.467Z,52.73
2018-12-15T18:27:14.475Z,46.07
2018-12-15T18:29:49.300Z,49.23
2018-12-15T18:32:24.846Z,47.10
2018-12-15T18:35:06.018Z,42.33
2018-12-15T18:37:40.816Z,47.03
2018-12-15T18:40:15.498Z,49.43
2018-12-15T18:42:50.356Z,43.77
2018-12-15T18:45:25.259Z,48.07
2018-12-15T18:48:00.079Z,49.17
2018-12-15T18:50:34.756Z,43.70
2018-12-15T18:53:09.657Z,45.67
2018-12-15T18:55:44.583Z,50.07
2018-12-15T18:58:19.351Z,47.20
2018-12-15T19:00:54.392Z,49.53
2018-12-15T19:03:29.239Z,46.97
2018-12-15T19:06:04.249Z,48.53
2018-12-15T19:08:39.280Z,49.73
2018-12-15T19:11:14.203Z,48.63
2018-12-15T19:13:49.313Z,46.20
2018-12-15T19:16:24.161Z,48.70
2018-12-15T19:18:59.010Z,46.53
2018-12-15T19:21:33.777Z,47.30
2018-12-15T19:24:08.641Z,49.13
2018-12-15T19:26:43.327Z,46.50
2018-12-15T19:29:18.226Z,48.67
2018-12-15T19:31:53.117Z,45.50
2018-12-15T19:34:27.876Z,42.43
2018-12-15T19:37:02.798Z,50.47
2018-12-15T19:39:37.580Z,47.37
2018-12-15T19:42:12.475Z,47.73
2018-12-15T19:44:47.404Z,46.27
2018-12-15T19:47:22.292Z,42.27
2018-12-15T19:49:57.075Z,51.23
2018-12-15T19:52:32.040Z,44.67
2018-12-15T19:55:07.233Z,47.83
2018-12-15T19:57:42.088Z,45.63
2018-12-15T20:00:16.905Z,51.67
2018-12-15T20:02:51.787Z,47.17
2018-12-15T20:05:26.695Z,51.67
2018-12-15T20:08:01.568Z,44.17
2018-12-15T20:10:36.452Z,52.37
2018-12-15T20:13:11.343Z,49.17
2018-12-15T20:15:46.194Z,49.10
2018-12-15T20:18:20.941Z,47.43
2018-12-15T20:20:55.764Z,50.07
2018-12-15T20:23:30.591Z,49.37
2018-12-15T20:26:05.561Z,43.67
2018-12-15T20:28:40.455Z,45.70
2018-12-15T20:31:15.517Z,45.13
2018-12-15T20:33:50.170Z,48.73
2018-12-15T20:36:25.047Z,47.33
2018-12-15T20:38:59.859Z,44.40
2018-12-15T20:41:34.736Z,47.63
2018-12-15T20:44:09.467Z,46.83
2018-12-15T20:46:44.390Z,50.33
2018-12-15T20:49:19.101Z,50.87
2018-12-15T20:51:55.420Z,50.87
2018-12-15T20:54:30.749Z,47.13
2018-12-15T20:57:05.727Z,50.43
2018-12-15T20:59:41.184Z,44.70
2018-12-15T21:02:15.933Z,52.20
2018-12-15T21:04:50.671Z,49.10
2018-12-15T21:07:25.593Z,52.47
2018-12-15T21:10:00.625Z,44.40
2018-12-15T21:12:35.363Z,45.57
2018-12-15T21:15:16.247Z,47.43
2018-12-15T21:17:50.908Z,50.57
2018-12-15T21:20:25.689Z,52.60
2018-12-15T21:23:00.752Z,50.07
2018-12-15T21:25:35.488Z,44.10
2018-12-15T21:28:10.300Z,48.30
2018-12-15T21:30:45.124Z,52.00
2018-12-15T21:33:20.060Z,50.13
2018-12-15T21:35:54.856Z,47.33
2018-12-15T21:38:29.802Z,52.40
2018-12-15T21:41:04.631Z,49.20
2018-12-15T21:43:39.351Z,43.70
2018-12-15T21:46:14.738Z,46.73
2018-12-15T21:48:49.639Z,49.60
2018-12-15T21:51:24.521Z,45.13
2018-12-15T21:53:59.487Z,51.67
2018-12-15T21:56:34.225Z,48.40
2018-12-15T21:59:08.973Z,46.73
2018-12-15T22:01:43.650Z,48.30
2018-12-15T22:04:18.400Z,50.53
2018-12-15T22:06:53.158Z,56.70
2018-12-15T22:09:27.813Z,52.13
2018-12-15T22:12:02.794Z,50.77
2018-12-15T22:14:37.910Z,48.40
2018-12-15T22:17:12.874Z,50.37
2018-12-15T22:19:47.781Z,48.70
2018-12-15T22:22:22.691Z,51.13
2018-12-15T22:24:57.772Z,46.93
2018-12-15T22:27:32.568Z,47.50
2018-12-15T22:30:08.689Z,48.20
2018-12-15T22:32:43.305Z,49.73
2018-12-15T22:35:18.082Z,44.03
2018-12-15T22:37:52.892Z,48.80
2018-12-15T22:40:27.672Z,50.27
2018-12-15T22:43:02.885Z,47.37
2018-12-15T22:45:37.691Z,50.40
2018-12-15T22:48:12.519Z,47.50
2018-12-15T22:50:47.989Z,45.53
2018-12-15T22:53:22.971Z,48.73
2018-12-15T22:55:57.677Z,49.30
2018-12-15T22:58:32.277Z,47.00
2018-12-15T23:01:11.800Z,53.80
2018-12-15T23:03:46.679Z,61.27
2018-12-15T23:06:21.424Z,50.40
2018-12-15T23:08:56.349Z,46.20
2018-12-15T23:11:31.183Z,48.10
2018-12-15T23:14:06.082Z,54.30
2018-12-15T23:16:40.781Z,48.87
2018-12-15T23:19:15.540Z,49.33
2018-12-15T23:21:50.329Z,50.30
2018-12-15T23:24:25.265Z,47.50
2018-12-15T23:27:00.113Z,48.33
2018-12-15T23:29:34.898Z,46.20
2018-12-15T23:32:09.746Z,49.40
2018-12-15T23:34:44.605Z,49.17
2018-12-15T23:37:19.370Z,44.40
2018-12-15T23:39:54.197Z,46.37
2018-12-15T23:42:35.521Z,42.83
2018-12-15T23:45:10.413Z,47.20
2018-12-15T23:47:45.399Z,48.03
2018-12-15T23:50:20.098Z,45.97
2018-12-15T23:52:54.907Z,42.57
2018-12-15T23:55:29.837Z,45.67
2018-12-15T23:58:04.642Z,47.33
